Time;durP1;ratioP1;P1;durP2;ratioP2;P2;SDS_P1;SDS_P2;PMS_P1;PMS_P2;Temp;Humidity;BMP_temperature;BMP_pressure;BME280_temperature;BME280_humidity;BME280_pressure;Samples;Min_cycle;Max_cycle;Signal;HPM_P1;HPM_P2
2022/04/01 00:00:28;;;;;;;;;1.00;1.00;;;;;;;;4995259;28;53451;-59
2022/04/01 00:02:53;;;;;;;;;1.00;1.00;;;;;;;;5000554;28;51054;-60
2022/04/01 00:05:19;;;;;;;;;2.00;2.00;;;;;;;;4998477;28;51331;-60
2022/04/01 00:07:44;;;;;;;;;0.25;0.00;;;;;;;;5000018;28;51070;-59
2022/04/01 00:10:10;;;;;;;;;2.00;1.00;;;;;;;;4997683;28;51226;-59
2022/04/01 00:12:54;;;;;;;;;1.00;0.00;;;;;;;;5002099;28;51147;-60
2022/04/01 00:15:20;;;;;;;;;1.50;1.00;;;;;;;;5003764;28;51131;-60
2022/04/01 00:17:45;;;;;;;;;2.00;1.00;;;;;;;;5003895;28;51369;-60
2022/04/01 00:20:12;;;;;;;;;1.00;0.50;;;;;;;;4995454;28;51807;-60
2022/04/01 00:22:37;;;;;;;;;1.00;0.00;;;;;;;;5011135;28;51082;-59
2022/04/01 00:25:02;;;;;;;;;1.25;0.75;;;;;;;;4997682;28;51763;-60
2022/04/01 00:27:28;;;;;;;;;1.00;0.00;;;;;;;;5000744;28;51210;-61
2022/04/01 00:29:53;;;;;;;;;2.25;2.25;;;;;;;;5011970;28;51186;-60
2022/04/01 00:32:18;;;;;;;;;1.75;1.75;;;;;;;;5001662;28;51164;-60
2022/04/01 00:34:45;;;;;;;;;1.00;0.50;;;;;;;;5000890;28;51013;-60
2022/04/01 00:37:10;;;;;;;;;1.50;1.00;;;;;;;;5003919;28;51163;-61
2022/04/01 00:39:36;;;;;;;;;0.50;0.25;;;;;;;;5002478;28;51890;-61
2022/04/01 00:42:02;;;;;;;;;1.00;1.00;;;;;;;;5008432;28;51037;-59
2022/04/01 00:44:29;;;;;;;;;1.25;0.00;;;;;;;;5008999;28;51172;-61
2022/04/01 00:46:58;;;;;;;;;1.25;1.00;;;;;;;;5008309;28;51009;-61
2022/04/01 00:49:24;;;;;;;;;1.50;0.50;;;;;;;;5008357;28;51856;-60
2022/04/01 00:51:50;;;;;;;;;1.00;1.00;;;;;;;;5007796;28;51297;-60
2022/04/01 00:54:16;;;;;;;;;0.00;0.00;;;;;;;;5009713;28;51062;-65
2022/04/01 00:56:42;;;;;;;;;0.25;0.25;;;;;;;;5011045;28;51188;-60
2022/04/01 00:59:08;;;;;;;;;1.50;1.00;;;;;;;;5009072;28;52709;-61
2022/04/01 01:01:34;;;;;;;;;1.00;1.00;;;;;;;;5004348;28;51007;-59
2022/04/01 01:04:05;;;;;;;;;1.00;1.00;;;;;;;;5004929;28;51286;-60
2022/04/01 01:06:31;;;;;;;;;1.00;1.00;;;;;;;;5009972;28;51096;-62
2022/04/01 01:08:56;;;;;;;;;1.00;1.00;;;;;;;;5006266;28;51794;-60
2022/04/01 01:11:22;;;;;;;;;1.75;1.00;;;;;;;;5001178;28;51139;-60
2022/04/01 01:13:47;;;;;;;;;0.50;0.50;;;;;;;;5002407;28;51100;-61
2022/04/01 01:16:12;;;;;;;;;0.75;0.00;;;;;;;;4996941;28;51111;-60
2022/04/01 01:18:37;;;;;;;;;1.00;0.50;;;;;;;;5007229;28;53593;-60
2022/04/01 01:21:03;;;;;;;;;1.00;1.00;;;;;;;;5006144;28;51147;-61
2022/04/01 01:23:31;;;;;;;;;1.00;0.00;;;;;;;;4996995;28;51396;-60
2022/04/01 01:25:57;;;;;;;;;1.00;1.00;;;;;;;;5000307;28;51221;-60
2022/04/01 01:28:22;;;;;;;;;0.75;0.75;;;;;;;;4999822;28;51485;-61
2022/04/01 01:30:47;;;;;;;;;0.50;0.50;;;;;;;;4991096;28;51026;-60
2022/04/01 01:33:14;;;;;;;;;0.75;0.75;;;;;;;;5006688;28;51451;-60
2022/04/01 01:35:39;;;;;;;;;1.00;1.00;;;;;;;;5008063;28;51052;-60
2022/04/01 01:38:05;;;;;;;;;0.75;0.00;;;;;;;;5002334;28;51114;-61
2022/04/01 01:40:30;;;;;;;;;0.50;0.00;;;;;;;;5007498;28;51071;-60
2022/04/01 01:42:55;;;;;;;;;1.00;1.00;;;;;;;;5004707;28;51425;-60
2022/04/01 01:45:21;;;;;;;;;1.25;0.00;;;;;;;;4999552;28;51205;-60
2022/04/01 01:47:46;;;;;;;;;0.50;0.00;;;;;;;;4998845;28;51248;-59
2022/04/01 01:55:39;;;;;;;;;0.00;0.00;;;;;;;;5008608;28;51079;-60
2022/04/01 01:58:05;;;;;;;;;1.25;0.75;;;;;;;;5003136;28;53555;-60
2022/04/01 02:00:31;;;;;;;;;1.00;1.00;;;;;;;;4996479;28;51119;-60
2022/04/01 02:02:56;;;;;;;;;1.00;0.25;;;;;;;;4998645;28;51347;-60
2022/04/01 02:05:21;;;;;;;;;2.00;1.00;;;;;;;;5010902;28;51293;-60
2022/04/01 02:07:47;;;;;;;;;0.00;0.00;;;;;;;;5007408;28;52040;-60
2022/04/01 02:10:13;;;;;;;;;1.00;0.50;;;;;;;;5003719;28;51029;-60
2022/04/01 02:12:38;;;;;;;;;0.00;0.00;;;;;;;;4999121;28;51181;-60
2022/04/01 02:15:04;;;;;;;;;0.75;0.00;;;;;;;;5002661;28;50988;-60
2022/04/01 02:17:31;;;;;;;;;1.00;1.00;;;;;;;;5002850;28;51939;-60
2022/04/01 02:19:56;;;;;;;;;1.50;1.25;;;;;;;;5005982;28;51152;-60
2022/04/01 02:22:22;;;;;;;;;1.50;1.00;;;;;;;;5021560;28;50880;-59
2022/04/01 02:24:50;;;;;;;;;0.00;0.00;;;;;;;;5001670;28;50898;-59
2022/04/01 02:27:15;;;;;;;;;2.00;1.75;;;;;;;;5008998;28;51509;-60
2022/04/01 02:29:43;;;;;;;;;0.25;0.00;;;;;;;;5007610;28;50949;-61
2022/04/01 02:32:08;;;;;;;;;3.25;2.00;;;;;;;;5011057;28;51174;-60
2022/04/01 02:34:33;;;;;;;;;1.75;1.00;;;;;;;;5012332;28;51303;-61
2022/04/01 02:36:59;;;;;;;;;1.75;1.25;;;;;;;;5009311;28;51789;-61
2022/04/01 02:39:24;;;;;;;;;1.75;0.50;;;;;;;;5006684;28;50933;-60
2022/04/01 02:41:50;;;;;;;;;1.00;1.00;;;;;;;;5004244;28;51155;-61
2022/04/01 02:44:15;;;;;;;;;0.50;0.50;;;;;;;;5006240;28;51000;-61
2022/04/01 02:46:42;;;;;;;;;0.00;0.00;;;;;;;;5004607;28;50932;-62
2022/04/01 02:49:08;;;;;;;;;1.75;0.25;;;;;;;;5008430;28;51429;-61
2022/04/01 02:51:34;;;;;;;;;1.00;1.00;;;;;;;;5010695;28;51134;-61
2022/04/01 02:53:59;;;;;;;;;2.50;1.00;;;;;;;;5005152;28;51407;-61
2022/04/01 02:56:25;;;;;;;;;1.50;0.50;;;;;;;;5005954;28;51746;-60
2022/04/01 02:58:50;;;;;;;;;1.00;1.00;;;;;;;;5009727;28;51125;-61
2022/04/01 03:01:15;;;;;;;;;1.25;1.25;;;;;;;;5002711;28;51041;-62
2022/04/01 03:03:41;;;;;;;;;3.00;1.00;;;;;;;;5002674;28;51428;-61
2022/04/01 03:06:07;;;;;;;;;2.00;1.25;;;;;;;;5005681;28;51678;-60
2022/04/01 03:08:32;;;;;;;;;0.25;0.25;;;;;;;;5001807;28;51311;-59
2022/04/01 03:10:58;;;;;;;;;1.25;1.00;;;;;;;;5011434;28;51099;-59
2022/04/01 03:13:23;;;;;;;;;1.25;1.00;;;;;;;;5009735;28;51217;-60
2022/04/01 03:15:49;;;;;;;;;2.00;0.25;;;;;;;;5010015;28;51698;-61
2022/04/01 03:18:14;;;;;;;;;2.00;1.00;;;;;;;;5002152;28;51221;-59
2022/04/01 03:20:40;;;;;;;;;2.00;1.75;;;;;;;;5006413;28;51225;-60
2022/04/01 03:23:06;;;;;;;;;1.00;1.00;;;;;;;;5008833;28;51387;-59
2022/04/01 03:25:32;;;;;;;;;1.00;0.25;;;;;;;;5007057;28;51915;-61
2022/04/01 03:27:58;;;;;;;;;1.00;1.00;;;;;;;;5006445;28;51185;-61
2022/04/01 03:30:23;;;;;;;;;1.00;1.00;;;;;;;;5010664;28;51254;-61
2022/04/01 03:32:49;;;;;;;;;1.00;1.00;;;;;;;;5006812;28;51530;-59
2022/04/01 03:35:15;;;;;;;;;0.00;0.00;;;;;;;;5015815;28;51833;-61
2022/04/01 03:37:41;;;;;;;;;3.50;1.00;;;;;;;;5005574;28;51159;-61
2022/04/01 03:40:06;;;;;;;;;0.00;0.00;;;;;;;;5010789;28;51081;-59
2022/04/01 03:42:32;;;;;;;;;0.50;0.50;;;;;;;;5008269;28;51599;-59
2022/04/01 03:44:59;;;;;;;;;0.00;0.00;;;;;;;;5004100;28;51189;-59
2022/04/01 03:47:28;;;;;;;;;0.00;0.00;;;;;;;;4998640;28;50880;-61
2022/04/01 03:49:58;;;;;;;;;1.75;1.50;;;;;;;;5006969;28;51109;-59
2022/04/01 03:52:24;;;;;;;;;0.00;0.00;;;;;;;;4999208;28;52403;-59
2022/04/01 03:54:53;;;;;;;;;0.00;0.00;;;;;;;;5002520;28;51749;-59
2022/04/01 03:57:20;;;;;;;;;3.25;0.75;;;;;;;;5008580;28;51185;-60
2022/04/01 03:59:50;;;;;;;;;1.00;0.00;;;;;;;;5008978;28;51246;-60
2022/04/01 04:02:17;;;;;;;;;1.00;0.75;;;;;;;;4999087;28;50860;-60
2022/04/01 04:04:43;;;;;;;;;0.00;0.00;;;;;;;;5009094;28;51185;-60
2022/04/01 04:07:09;;;;;;;;;0.00;0.00;;;;;;;;5018401;28;52408;-60
2022/04/01 04:09:37;;;;;;;;;0.00;0.00;;;;;;;;5008206;28;51159;-60
2022/04/01 04:12:03;;;;;;;;;1.00;1.00;;;;;;;;4995209;28;51185;-60
2022/04/01 04:14:28;;;;;;;;;1.00;1.00;;;;;;;;5005873;28;51809;-59
2022/04/01 04:16:55;;;;;;;;;1.00;1.00;;;;;;;;5005013;28;51167;-60
2022/04/01 04:19:20;;;;;;;;;1.00;1.00;;;;;;;;5005801;28;51830;-60
2022/04/01 04:21:51;;;;;;;;;1.00;1.00;;;;;;;;5008342;28;51321;-60
2022/04/01 04:24:17;;;;;;;;;0.00;0.00;;;;;;;;5002741;28;51114;-60
2022/04/01 04:26:48;;;;;;;;;1.25;1.00;;;;;;;;5009854;28;50923;-61
2022/04/01 04:29:14;;;;;;;;;4.75;4.00;;;;;;;;5000758;28;51128;-59
2022/04/01 04:31:43;;;;;;;;;2.00;1.75;;;;;;;;5010500;28;51251;-61
2022/04/01 04:34:10;;;;;;;;;0.00;0.00;;;;;;;;5008216;28;51189;-61
2022/04/01 04:36:46;;;;;;;;;0.75;0.75;;;;;;;;5003916;28;51682;-61
2022/04/01 04:39:31;;;;;;;;;1.00;1.00;;;;;;;;5008887;28;51319;-60
2022/04/01 04:41:56;;;;;;;;;0.75;0.75;;;;;;;;5005048;28;51351;-60
2022/04/01 04:44:28;;;;;;;;;0.75;0.75;;;;;;;;5002615;28;52658;-62
2022/04/01 04:46:55;;;;;;;;;2.00;2.00;;;;;;;;5004918;28;51224;-61
2022/04/01 04:49:21;;;;;;;;;1.00;1.00;;;;;;;;5007197;28;50984;-61
2022/04/01 04:51:47;;;;;;;;;1.00;1.00;;;;;;;;5007750;28;51241;-59
2022/04/01 04:54:13;;;;;;;;;1.25;1.25;;;;;;;;5012557;28;51114;-61
2022/04/01 04:56:39;;;;;;;;;1.00;1.00;;;;;;;;5009519;28;51153;-60
2022/04/01 04:59:05;;;;;;;;;2.00;2.00;;;;;;;;5004457;28;51104;-60
2022/04/01 05:01:34;;;;;;;;;1.25;1.25;;;;;;;;5004673;28;51104;-61
2022/04/01 05:04:12;;;;;;;;;0.75;0.75;;;;;;;;5002865;28;52794;-59
2022/04/01 05:06:50;;;;;;;;;1.75;1.75;;;;;;;;5000855;28;50962;-59
2022/04/01 05:09:18;;;;;;;;;1.75;1.75;;;;;;;;5003243;28;51601;-60
2022/04/01 05:11:43;;;;;;;;;2.50;2.50;;;;;;;;5008463;28;51449;-60
2022/04/01 05:14:26;;;;;;;;;0.00;0.00;;;;;;;;5002314;28;51742;-62
2022/04/01 05:16:57;;;;;;;;;1.75;1.00;;;;;;;;5002729;28;51182;-60
2022/04/01 05:19:27;;;;;;;;;1.00;1.00;;;;;;;;5005837;28;51249;-60
2022/04/01 05:22:08;;;;;;;;;1.00;1.00;;;;;;;;5007185;28;51103;-60
2022/04/01 05:24:50;;;;;;;;;2.00;2.00;;;;;;;;5009992;28;52743;-60
2022/04/01 05:27:15;;;;;;;;;4.50;4.00;;;;;;;;5005757;28;51011;-61
2022/04/01 05:29:42;;;;;;;;;3.75;2.00;;;;;;;;4999508;28;51379;-60
2022/04/01 05:32:09;;;;;;;;;4.25;4.25;;;;;;;;5011644;28;51073;-60
2022/04/01 05:34:42;;;;;;;;;1.00;1.00;;;;;;;;4998168;28;51078;-61
2022/04/01 05:37:07;;;;;;;;;4.50;4.00;;;;;;;;4995796;28;51060;-60
2022/04/01 05:39:33;;;;;;;;;1.00;1.00;;;;;;;;5013793;28;51366;-62
2022/04/01 05:41:59;;;;;;;;;3.00;3.00;;;;;;;;5018335;28;51106;-60
2022/04/01 05:44:28;;;;;;;;;4.00;4.00;;;;;;;;5004937;28;51759;-59
2022/04/01 05:46:53;;;;;;;;;2.00;1.25;;;;;;;;5007479;28;51305;-61
2022/04/01 05:49:19;;;;;;;;;5.00;4.25;;;;;;;;5011800;28;51231;-61
2022/04/01 05:51:48;;;;;;;;;2.00;2.00;;;;;;;;5010962;28;51258;-61
2022/04/01 05:54:19;;;;;;;;;2.00;1.25;;;;;;;;5009385;28;51207;-62
2022/04/01 05:56:45;;;;;;;;;3.75;3.75;;;;;;;;5005184;28;51367;-61
2022/04/01 05:59:12;;;;;;;;;3.25;2.00;;;;;;;;5011180;28;51068;-61
2022/04/01 06:01:37;;;;;;;;;2.00;2.00;;;;;;;;5000326;28;51515;-63
2022/04/01 06:04:21;;;;;;;;;4.00;3.75;;;;;;;;5008180;28;52226;-62
2022/04/01 06:06:47;;;;;;;;;5.00;4.75;;;;;;;;5009147;28;50994;-63
2022/04/01 06:09:16;;;;;;;;;4.00;4.00;;;;;;;;5010743;28;51180;-62
2022/04/01 06:11:44;;;;;;;;;1.00;1.00;;;;;;;;5010821;28;51549;-62
2022/04/01 06:14:33;;;;;;;;;4.00;2.50;;;;;;;;5008989;28;52368;-61
2022/04/01 06:17:12;;;;;;;;;4.75;4.00;;;;;;;;5005638;28;51116;-61
2022/04/01 06:19:44;;;;;;;;;5.00;5.00;;;;;;;;5008283;28;51200;-63
2022/04/01 06:22:20;;;;;;;;;4.00;4.00;;;;;;;;5010950;28;51437;-63
2022/04/01 06:24:45;;;;;;;;;5.00;5.00;;;;;;;;5009361;28;52957;-62
2022/04/01 06:27:22;;;;;;;;;5.75;5.75;;;;;;;;5009879;28;51100;-62
2022/04/01 06:30:02;;;;;;;;;5.50;5.00;;;;;;;;5011061;28;51290;-63
2022/04/01 06:32:35;;;;;;;;;5.00;5.00;;;;;;;;5001687;28;51137;-63
2022/04/01 06:35:03;;;;;;;;;6.00;5.00;;;;;;;;5002956;28;52035;-62
2022/04/01 06:37:32;;;;;;;;;5.50;5.00;;;;;;;;4997695;28;51350;-62
2022/04/01 06:40:10;;;;;;;;;10.00;9.25;;;;;;;;5009090;28;51123;-61
2022/04/01 06:42:37;;;;;;;;;6.50;6.50;;;;;;;;4993404;28;51284;-62
2022/04/01 06:45:03;;;;;;;;;5.00;5.00;;;;;;;;5010379;28;50970;-63
2022/04/01 06:47:29;;;;;;;;;5.00;5.00;;;;;;;;4999549;28;51227;-60
2022/04/01 06:49:54;;;;;;;;;5.00;5.00;;;;;;;;5013454;28;51167;-60
2022/04/01 06:52:19;;;;;;;;;6.00;6.00;;;;;;;;5001386;28;51398;-62
2022/04/01 06:54:46;;;;;;;;;5.25;5.25;;;;;;;;5000489;28;52207;-62
2022/04/01 06:57:11;;;;;;;;;7.00;6.00;;;;;;;;5013126;28;51160;-61
2022/04/01 06:59:37;;;;;;;;;5.00;5.00;;;;;;;;5000842;28;51120;-62
2022/04/01 07:02:02;;;;;;;;;8.00;6.00;;;;;;;;4996587;28;51256;-61
2022/04/01 07:04:27;;;;;;;;;8.50;6.00;;;;;;;;5004093;28;52013;-62
2022/04/01 07:06:55;;;;;;;;;6.00;6.00;;;;;;;;5008182;28;51358;-61
2022/04/01 07:09:21;;;;;;;;;8.00;7.50;;;;;;;;4998391;28;51077;-61
2022/04/01 07:11:46;;;;;;;;;4.50;3.50;;;;;;;;4994474;28;51244;-61
2022/04/01 07:14:11;;;;;;;;;8.75;8.50;;;;;;;;4994416;28;51664;-62
2022/04/01 07:16:36;;;;;;;;;8.50;8.00;;;;;;;;5001825;28;50962;-62
2022/04/01 07:19:03;;;;;;;;;9.00;8.00;;;;;;;;5004601;28;51029;-62
2022/04/01 07:21:29;;;;;;;;;6.00;6.00;;;;;;;;4996829;28;51136;-62
2022/04/01 07:23:54;;;;;;;;;11.50;9.75;;;;;;;;5012189;28;50981;-61
2022/04/01 07:26:19;;;;;;;;;9.00;9.00;;;;;;;;5009173;28;51051;-61
2022/04/01 07:28:44;;;;;;;;;9.00;9.00;;;;;;;;5014178;28;51286;-62
2022/04/01 07:33:54;;;;;;;;;9.25;9.00;;;;;;;;5020694;28;51348;-61
2022/04/01 07:36:20;;;;;;;;;9.50;9.25;;;;;;;;4998106;28;51057;-62
2022/04/01 07:38:45;;;;;;;;;9.00;8.00;;;;;;;;5009321;28;51217;-62
2022/04/01 07:41:11;;;;;;;;;9.50;9.00;;;;;;;;5013570;28;51059;-64
2022/04/01 07:43:36;;;;;;;;;10.00;9.50;;;;;;;;4996783;28;51214;-61
2022/04/01 07:46:02;;;;;;;;;10.00;10.00;;;;;;;;5006102;28;51168;-62
2022/04/01 07:48:27;;;;;;;;;10.00;10.00;;;;;;;;5006724;28;50910;-62
2022/04/01 07:50:52;;;;;;;;;10.00;9.00;;;;;;;;4999911;28;51048;-62
2022/04/01 07:53:18;;;;;;;;;12.50;11.25;;;;;;;;4995617;28;51064;-63
2022/04/01 07:55:48;;;;;;;;;12.50;11.00;;;;;;;;5001597;28;51168;-62
2022/04/01 07:58:13;;;;;;;;;9.50;9.00;;;;;;;;5011275;28;51147;-62
2022/04/01 08:00:39;;;;;;;;;12.75;12.25;;;;;;;;5003716;28;51065;-62
2022/04/01 08:03:04;;;;;;;;;11.75;10.75;;;;;;;;4999941;28;52294;-63
2022/04/01 08:05:29;;;;;;;;;14.00;13.00;;;;;;;;4992765;28;50957;-63
2022/04/01 08:07:55;;;;;;;;;13.00;11.50;;;;;;;;4997508;28;50969;-62
2022/04/01 08:10:20;;;;;;;;;12.75;11.50;;;;;;;;4999077;28;51108;-63
2022/04/01 08:12:45;;;;;;;;;11.25;11.00;;;;;;;;4998985;28;51925;-62
2022/04/01 08:15:12;;;;;;;;;12.00;12.00;;;;;;;;4996268;28;51318;-63
2022/04/01 08:17:38;;;;;;;;;8.25;8.00;;;;;;;;5009645;28;51337;-63
2022/04/01 08:20:03;;;;;;;;;11.50;11.50;;;;;;;;5004932;28;51407;-63
2022/04/01 08:22:29;;;;;;;;;13.50;12.00;;;;;;;;5001589;28;50901;-61
2022/04/01 08:24:54;;;;;;;;;10.25;10.25;;;;;;;;4995321;28;51093;-62
2022/04/01 08:27:20;;;;;;;;;10.00;9.00;;;;;;;;5007873;28;50879;-62
2022/04/01 08:29:45;;;;;;;;;12.75;12.75;;;;;;;;5010473;28;50893;-62
2022/04/01 08:32:10;;;;;;;;;12.00;12.00;;;;;;;;5011247;28;52218;-62
2022/04/01 08:34:37;;;;;;;;;17.75;16.00;;;;;;;;5006168;28;51200;-62
2022/04/01 08:37:03;;;;;;;;;10.00;9.75;;;;;;;;5002219;28;50906;-64
2022/04/01 08:39:28;;;;;;;;;13.50;12.50;;;;;;;;5004097;28;51535;-65
2022/04/01 08:41:54;;;;;;;;;9.00;9.00;;;;;;;;5009965;28;52146;-65
2022/04/01 08:44:19;;;;;;;;;11.00;10.00;;;;;;;;5004425;28;51092;-64
2022/04/01 08:46:45;;;;;;;;;12.50;12.25;;;;;;;;5009053;28;51444;-64
2022/04/01 08:49:10;;;;;;;;;12.00;11.75;;;;;;;;4992983;28;51468;-63
2022/04/01 08:51:36;;;;;;;;;9.75;9.75;;;;;;;;5004033;28;51927;-65
2022/04/01 08:54:03;;;;;;;;;17.50;10.75;;;;;;;;4999865;28;51713;-65
2022/04/01 08:56:29;;;;;;;;;13.00;12.25;;;;;;;;5011029;28;51101;-64
2022/04/01 08:58:54;;;;;;;;;12.50;12.00;;;;;;;;5004584;28;51243;-67
2022/04/01 09:01:19;;;;;;;;;12.25;10.50;;;;;;;;4997501;28;51749;-65
2022/04/01 09:03:44;;;;;;;;;12.75;12.50;;;;;;;;5012899;28;51226;-65
2022/04/01 09:06:10;;;;;;;;;10.00;9.25;;;;;;;;5002021;28;51162;-65
2022/04/01 09:08:39;;;;;;;;;10.00;9.25;;;;;;;;5001583;28;51257;-66
2022/04/01 09:11:05;;;;;;;;;13.50;13.25;;;;;;;;4994640;28;51132;-65
2022/04/01 09:13:32;;;;;;;;;13.50;12.25;;;;;;;;5000102;28;51203;-65
2022/04/01 09:15:57;;;;;;;;;10.00;10.00;;;;;;;;4993754;28;51109;-63
2022/04/01 09:18:35;;;;;;;;;13.00;12.00;;;;;;;;5003434;28;51056;-64
2022/04/01 09:21:00;;;;;;;;;16.00;16.00;;;;;;;;4993172;28;53154;-64
2022/04/01 09:23:25;;;;;;;;;11.50;10.00;;;;;;;;4998345;28;50851;-63
2022/04/01 09:25:51;;;;;;;;;16.75;14.25;;;;;;;;5014982;28;51757;-65
2022/04/01 09:28:23;;;;;;;;;13.25;13.25;;;;;;;;5003463;28;51095;-65
2022/04/01 09:30:55;;;;;;;;;14.75;12.50;;;;;;;;4998603;28;51197;-65
2022/04/01 09:33:21;;;;;;;;;12.25;12.25;;;;;;;;5007166;28;51464;-67
2022/04/01 09:35:46;;;;;;;;;13.00;12.25;;;;;;;;4999239;28;51180;-65
2022/04/01 09:38:12;;;;;;;;;13.75;13.75;;;;;;;;4994064;28;51104;-65
2022/04/01 09:40:37;;;;;;;;;12.00;11.50;;;;;;;;5002303;28;53295;-65
2022/04/01 09:43:02;;;;;;;;;13.00;13.00;;;;;;;;5003665;28;50926;-66
2022/04/01 09:45:32;;;;;;;;;13.75;12.75;;;;;;;;5005323;28;51014;-66
2022/04/01 09:48:05;;;;;;;;;13.00;12.50;;;;;;;;5010726;28;50902;-65
2022/04/01 09:50:40;;;;;;;;;13.50;13.00;;;;;;;;4998020;28;52414;-63
2022/04/01 09:53:06;;;;;;;;;15.50;12.50;;;;;;;;5012495;28;51072;-65
2022/04/01 09:55:36;;;;;;;;;17.00;15.25;;;;;;;;5014274;28;51044;-62
2022/04/01 09:58:02;;;;;;;;;12.00;9.75;;;;;;;;5001515;28;51105;-65
2022/04/01 10:00:27;;;;;;;;;13.75;13.75;;;;;;;;5012301;28;53002;-66
2022/04/01 10:02:52;;;;;;;;;17.00;16.75;;;;;;;;5006699;28;50993;-65
2022/04/01 10:05:18;;;;;;;;;13.75;13.25;;;;;;;;5013715;28;51057;-66
2022/04/01 10:07:43;;;;;;;;;15.25;14.75;;;;;;;;5014160;28;51172;-66
2022/04/01 10:10:08;;;;;;;;;11.00;9.00;;;;;;;;5013691;28;52781;-66
2022/04/01 10:12:38;;;;;;;;;17.50;17.50;;;;;;;;5007968;28;51321;-65
2022/04/01 10:15:07;;;;;;;;;16.50;15.00;;;;;;;;4995900;28;51157;-66
2022/04/01 10:17:36;;;;;;;;;17.00;16.00;;;;;;;;4992357;28;51218;-66
2022/04/01 10:20:02;;;;;;;;;18.50;18.00;;;;;;;;4997315;28;51815;-66
2022/04/01 10:22:28;;;;;;;;;19.50;17.75;;;;;;;;4992359;28;50957;-66
2022/04/01 10:25:05;;;;;;;;;18.00;18.00;;;;;;;;4993564;28;51182;-65
2022/04/01 10:27:39;;;;;;;;;20.75;18.00;;;;;;;;5007328;28;50929;-66
2022/04/01 10:30:05;;;;;;;;;16.50;15.75;;;;;;;;4993687;28;52612;-65
2022/04/01 10:32:36;;;;;;;;;20.00;17.50;;;;;;;;4994394;28;50986;-66
2022/04/01 10:35:03;;;;;;;;;20.75;17.00;;;;;;;;4994038;28;50908;-66
2022/04/01 10:37:30;;;;;;;;;17.75;17.50;;;;;;;;4992656;28;51085;-65
2022/04/01 10:40:00;;;;;;;;;15.25;13.50;;;;;;;;4994200;28;51005;-65
2022/04/01 10:42:29;;;;;;;;;16.25;14.75;;;;;;;;4992133;28;50982;-69
2022/04/01 10:44:56;;;;;;;;;17.25;17.00;;;;;;;;4994162;28;50984;-65
2022/04/01 10:47:23;;;;;;;;;22.75;20.00;;;;;;;;4993978;28;51358;-67
2022/04/01 10:52:32;;;;;;;;;14.50;13.50;;;;;;;;4994428;28;51140;-67
2022/04/01 10:55:00;;;;;;;;;17.75;17.25;;;;;;;;5015299;28;51072;-66
2022/04/01 10:57:27;;;;;;;;;14.25;14.25;;;;;;;;4997757;28;51243;-68
2022/04/01 10:59:54;;;;;;;;;19.25;19.00;;;;;;;;4994326;28;51601;-67
2022/04/01 11:02:20;;;;;;;;;16.00;15.25;;;;;;;;4999716;28;50980;-67
2022/04/01 11:04:46;;;;;;;;;15.00;13.75;;;;;;;;4994419;28;50891;-65
2022/04/01 11:07:21;;;;;;;;;18.25;17.00;;;;;;;;4994686;28;50963;-64
2022/04/01 11:09:56;;;;;;;;;17.00;15.25;;;;;;;;4993546;28;51114;-70
2022/04/01 11:12:51;;;;;;;;;21.50;20.25;;;;;;;;4994434;28;51103;-69
2022/04/01 11:15:22;;;;;;;;;19.25;17.75;;;;;;;;4989495;28;50992;-68
2022/04/01 11:17:48;;;;;;;;;17.00;17.00;;;;;;;;4996500;28;51297;-67
2022/04/01 11:20:17;;;;;;;;;18.25;17.00;;;;;;;;5021390;28;51189;-67
2022/04/01 11:22:42;;;;;;;;;20.50;18.75;;;;;;;;5015184;28;51115;-66
2022/04/01 11:25:11;;;;;;;;;18.75;18.75;;;;;;;;5012484;28;51016;-67
2022/04/01 11:27:42;;;;;;;;;20.25;18.25;;;;;;;;5015991;28;50858;-66
2022/04/01 11:30:09;;;;;;;;;13.50;13.50;;;;;;;;5005548;28;51079;-66
2022/04/01 11:32:35;;;;;;;;;19.00;19.00;;;;;;;;5025605;28;50996;-67
2022/04/01 11:35:01;;;;;;;;;21.00;20.25;;;;;;;;5015469;28;50901;-67
2022/04/01 11:37:27;;;;;;;;;18.00;17.50;;;;;;;;4999457;28;51277;-68
2022/04/01 11:39:52;;;;;;;;;17.75;17.25;;;;;;;;4994762;28;53634;-67
2022/04/01 11:42:18;;;;;;;;;17.50;15.75;;;;;;;;4993759;28;51375;-67
2022/04/01 11:44:53;;;;;;;;;21.00;21.00;;;;;;;;4983314;28;51780;-66
2022/04/01 11:47:25;;;;;;;;;21.00;20.75;;;;;;;;4988748;28;51349;-66
2022/04/01 11:50:04;;;;;;;;;21.00;18.00;;;;;;;;4990956;28;51464;-66
2022/04/01 11:52:56;;;;;;;;;16.00;14.00;;;;;;;;4991248;28;52610;-66
2022/04/01 11:55:23;;;;;;;;;19.25;17.00;;;;;;;;4990976;28;51238;-68
2022/04/01 11:57:48;;;;;;;;;17.50;16.50;;;;;;;;4993031;28;54270;-66
2022/04/01 12:00:15;;;;;;;;;15.25;14.50;;;;;;;;4989873;28;52938;-68
2022/04/01 12:02:41;;;;;;;;;20.50;16.75;;;;;;;;4992461;28;51313;-68
2022/04/01 12:05:07;;;;;;;;;22.00;21.00;;;;;;;;4992614;28;52450;-67
2022/04/01 12:10:24;;;;;;;;;14.75;14.25;;;;;;;;4992517;28;51648;-68
2022/04/01 12:12:56;;;;;;;;;20.50;18.50;;;;;;;;4992890;28;51288;-65
2022/04/01 12:15:37;;;;;;;;;19.50;17.75;;;;;;;;4993265;28;51340;-67
2022/04/01 12:18:12;;;;;;;;;19.50;18.50;;;;;;;;4993844;28;51318;-67
2022/04/01 12:20:38;;;;;;;;;17.50;16.50;;;;;;;;4989362;28;54149;-67
2022/04/01 12:23:04;;;;;;;;;24.00;22.75;;;;;;;;4991992;28;52069;-66
2022/04/01 12:25:31;;;;;;;;;18.00;17.00;;;;;;;;4993065;28;51282;-67
2022/04/01 12:27:58;;;;;;;;;23.50;21.25;;;;;;;;4993217;28;51661;-65
2022/04/01 12:30:34;;;;;;;;;14.75;14.00;;;;;;;;4991786;28;51787;-68
2022/04/01 12:33:01;;;;;;;;;17.00;16.00;;;;;;;;4993492;28;54378;-68
2022/04/01 12:35:26;;;;;;;;;15.50;14.50;;;;;;;;4992767;28;51205;-68
2022/04/01 12:38:03;;;;;;;;;17.25;17.00;;;;;;;;4993650;28;51344;-68
2022/04/01 12:40:33;;;;;;;;;22.50;20.75;;;;;;;;4992123;28;53045;-69
2022/04/01 12:42:58;;;;;;;;;21.25;19.25;;;;;;;;4993165;28;52088;-71
2022/04/01 12:45:24;;;;;;;;;18.00;18.00;;;;;;;;4992805;28;51218;-63
2022/04/01 12:47:50;;;;;;;;;18.00;16.00;;;;;;;;4993276;28;51265;-64
2022/04/01 12:50:34;;;;;;;;;13.25;13.00;;;;;;;;4993023;28;51443;-64
2022/04/01 12:53:09;;;;;;;;;15.75;14.00;;;;;;;;4992795;28;51376;-65
2022/04/01 12:55:34;;;;;;;;;18.75;17.50;;;;;;;;5007697;28;51364;-64
2022/04/01 12:58:00;;;;;;;;;10.50;10.00;;;;;;;;4993284;28;51395;-64
2022/04/01 13:00:26;;;;;;;;;16.00;14.25;;;;;;;;4992440;28;51679;-65
2022/04/01 13:02:51;;;;;;;;;13.50;13.25;;;;;;;;4992152;28;52033;-64
2022/04/01 13:05:18;;;;;;;;;20.50;19.25;;;;;;;;4992997;28;52580;-66
2022/04/01 13:07:43;;;;;;;;;14.00;13.00;;;;;;;;4993099;28;51839;-64
2022/04/01 13:10:09;;;;;;;;;13.75;13.75;;;;;;;;4991052;28;53544;-65
2022/04/01 13:12:34;;;;;;;;;15.00;15.00;;;;;;;;4992565;28;51290;-64
2022/04/01 13:15:19;;;;;;;;;20.25;17.75;;;;;;;;4992426;28;51692;-63
2022/04/01 13:17:51;;;;;;;;;15.75;15.75;;;;;;;;4992227;28;51686;-64
2022/04/01 13:20:19;;;;;;;;;16.75;15.00;;;;;;;;4991734;28;51409;-64
2022/04/01 13:22:45;;;;;;;;;11.25;9.00;;;;;;;;4991494;28;51838;-64
2022/04/01 13:25:12;;;;;;;;;17.00;16.00;;;;;;;;4991923;28;52004;-64
2022/04/01 13:27:38;;;;;;;;;19.00;14.50;;;;;;;;4992749;28;52060;-63
2022/04/01 13:30:04;;;;;;;;;15.25;14.00;;;;;;;;4991985;28;51684;-64
2022/04/01 13:32:29;;;;;;;;;21.00;18.75;;;;;;;;4991874;28;53449;-62
2022/04/01 13:34:55;;;;;;;;;16.00;16.00;;;;;;;;4992437;28;51719;-64
2022/04/01 13:37:20;;;;;;;;;19.00;17.50;;;;;;;;4993047;28;51933;-63
2022/04/01 13:39:45;;;;;;;;;20.75;18.75;;;;;;;;4992132;28;53630;-65
2022/04/01 13:42:11;;;;;;;;;18.25;18.00;;;;;;;;4993119;28;51382;-64
2022/04/01 13:44:37;;;;;;;;;23.00;20.75;;;;;;;;4992921;28;51297;-65
2022/04/01 13:47:03;;;;;;;;;18.00;17.00;;;;;;;;4992402;28;51211;-64
2022/04/01 13:49:29;;;;;;;;;21.75;17.25;;;;;;;;4991741;28;52794;-65
2022/04/01 13:51:54;;;;;;;;;20.50;19.75;;;;;;;;4992546;28;51735;-64
2022/04/01 13:54:19;;;;;;;;;21.50;19.25;;;;;;;;4995195;28;52408;-64
2022/04/01 13:56:47;;;;;;;;;17.75;17.00;;;;;;;;4986899;28;51372;-63
2022/04/01 13:59:13;;;;;;;;;20.75;19.25;;;;;;;;4986798;28;51802;-65
2022/04/01 14:01:39;;;;;;;;;16.25;15.00;;;;;;;;4986319;28;51149;-65
2022/04/01 14:04:04;;;;;;;;;20.50;18.75;;;;;;;;4987821;28;53581;-64
2022/04/01 14:06:31;;;;;;;;;21.00;19.25;;;;;;;;4987962;28;51279;-63
2022/04/01 14:08:56;;;;;;;;;23.00;20.25;;;;;;;;4985914;28;51728;-64
2022/04/01 14:11:22;;;;;;;;;21.50;20.00;;;;;;;;4987358;28;51758;-64
2022/04/01 14:13:48;;;;;;;;;23.50;23.00;;;;;;;;4986708;28;51833;-65
2022/04/01 14:16:13;;;;;;;;;17.00;16.75;;;;;;;;5001591;28;53117;-64
2022/04/01 14:18:38;;;;;;;;;20.25;18.50;;;;;;;;4987179;28;51920;-64
2022/04/01 14:21:06;;;;;;;;;21.00;20.25;;;;;;;;4987519;28;51373;-65
2022/04/01 14:23:32;;;;;;;;;22.00;21.00;;;;;;;;4987746;28;51417;-64
2022/04/01 14:26:08;;;;;;;;;21.00;20.25;;;;;;;;4987220;28;52443;-64
2022/04/01 14:28:34;;;;;;;;;18.00;17.25;;;;;;;;4984652;28;53107;-64
2022/04/01 14:31:00;;;;;;;;;20.00;17.75;;;;;;;;4986226;28;51424;-63
2022/04/01 14:33:26;;;;;;;;;24.50;23.75;;;;;;;;4985372;28;51844;-65
2022/04/01 14:35:51;;;;;;;;;19.25;18.00;;;;;;;;4986387;28;52517;-65
2022/04/01 14:38:17;;;;;;;;;19.75;18.00;;;;;;;;4986588;28;51976;-64
2022/04/01 14:40:42;;;;;;;;;22.50;21.50;;;;;;;;4987044;28;51348;-65
2022/04/01 14:43:08;;;;;;;;;22.50;20.25;;;;;;;;4986384;28;51520;-65
2022/04/01 14:45:36;;;;;;;;;26.00;22.25;;;;;;;;4987644;28;51319;-65